Airfield :







YOU CAN JOIN US ON...

 
LOGIN :

Register | Disclaimer

   EN    FR    IT 

 









Legend :    VFR   Marginal VFR   IFR   Intensive IFR   Very Intensive IFR
Visi :
Ceiling :
>= 8 km
>= 3000ft
5 to 8 km
1000 to 3000 ft
1500m to 5 km
500 to 1000 ft
800 to 1500m
200 to 500 ft
< 800m
< 200 ft
Symbols :   Thunderstorms  Fog  Heavy snow  Heavy precipitations  Wind > 20 kt






- Airport Elevation : 14 ft
- IATA code : UVF


TLPL - Hewanorra Int.

CURRENT METAR :
  • 090200Z 08020KT 9999 FEW023 27/23 Q1017 TEMPO SHRA

EXPIRED METARs :
  • 090100Z 07013KT 9999 FEW015CB 26/24 Q1016 TEMPO SHRA
  • 090000Z 07015KT 9999 FEW022 SCT042 26/24 Q1015 TEMPO SHRA

TAF TAF TLPL
Valid from the 09 at 00:00 until the 10 at 00:00 UTC


082300Z 0900/0924 08015KT 9999 SCT023
TEMPO 0900/0915 5000 SHRA FEW012CB BKN015
PROB40
TEMPO 0900/0906 2000 TSRA FEW010CB BKN013 BKN037
TTZP FIR / North America



MET'MAP, your aeronautical weather chart ! - Copyright ORBIFLY December 2007 - Disclaimer

ORBIFLY MET'MAP TEAM :

Programming & Development : Alexandra Zaïnal
Concept & original design : Baudouin d'Aumeries
Assistance for programming : Marc-Olivier Méhu
Technical & hardware support : Manuel Goepfert

Contact : metmap@orbifly.com




SOURCES & CREDITS :

   NOAA